Terminal Aerodrome Forecast
Issued by NWS

Home | Current Version | Previous Version | Text Only | Print | Product List | Glossary On
Versions: 1 2 3 4 5 6 7 8 9 10 11 12 13 14 15
273
FTUS42 KJAX 290937 AAA
TAFVQQ
TAF AMD
KVQQ 290937Z 2910/3006 00000KT 3SM BR SKC
     FM291300 31009KT P6SM SCT025 SCT150
     FM292000 34008KT P6SM SCT040 SCT120
     FM300000 VRB03KT P6SM FEW040 FEW120=

USA.gov is the U.S. government's official web portal to all federal, state and local government web resources and services.